createdAt,value
2022-12-08T00:01:33.141Z,99626.09
2022-12-08T00:04:02.353Z,99625.13
2022-12-08T00:06:54.112Z,99626.80
2022-12-08T00:09:21.985Z,99620.64
2022-12-08T00:12:12.786Z,99621.28
2022-12-08T00:14:42.733Z,99620.94
2022-12-08T00:17:12.392Z,99614.88
2022-12-08T00:19:40.941Z,99613.29
2022-12-08T00:22:09.901Z,99615.41
2022-12-08T00:24:39.842Z,99618.54
2022-12-08T00:27:09.491Z,99620.50
2022-12-08T00:29:38.275Z,99617.67
2022-12-08T00:32:06.782Z,99617.45
2022-12-08T00:34:35.062Z,99617.77
2022-12-08T00:37:02.877Z,99617.44
2022-12-08T00:39:30.640Z,99622.46
2022-12-08T00:42:13.649Z,99618.48
2022-12-08T00:44:43.359Z,99616.08
2022-12-08T00:47:12.335Z,99619.86
2022-12-08T00:49:40.403Z,99618.36
2022-12-08T00:52:08.121Z,99620.73
2022-12-08T00:54:35.883Z,99618.61
2022-12-08T00:57:04.005Z,99621.23
2022-12-08T00:59:31.746Z,99620.80
2022-12-08T01:02:00.214Z,99622.29
2022-12-08T01:04:27.969Z,99622.58
2022-12-08T01:06:55.673Z,99620.19
2022-12-08T01:09:23.605Z,99619.69
2022-12-08T01:11:51.615Z,99622.61
2022-12-08T01:14:19.324Z,99625.60
2022-12-08T01:16:47.425Z,99621.52
2022-12-08T01:19:16.061Z,99623.73
2022-12-08T01:21:44.839Z,99624.94
2022-12-08T01:24:14.533Z,99628.14
2022-12-08T01:26:42.285Z,99631.92
2022-12-08T01:29:10.924Z,99631.44
2022-12-08T01:31:39.415Z,99625.85
2022-12-08T01:34:08.606Z,99632.05
2022-12-08T01:36:37.293Z,99628.94
2022-12-08T01:39:07.680Z,99628.45
2022-12-08T01:41:37.488Z,99630.30
2022-12-08T01:44:11.111Z,99628.84
2022-12-08T01:46:41.527Z,99626.80
2022-12-08T05:14:34.574Z,99540.94
2022-12-08T05:17:06.247Z,99540.67
2022-12-08T05:19:48.492Z,99538.43
2022-12-08T05:22:15.338Z,99539.99
2022-12-08T05:24:47.395Z,99534.05
2022-12-08T05:27:15.993Z,99534.02
2022-12-08T05:29:48.776Z,99532.52
2022-12-08T05:32:21.527Z,99529.54
2022-12-08T05:34:49.366Z,99529.13
2022-12-08T05:37:54.240Z,99528.04
2022-12-08T05:40:25.703Z,99529.38
2022-12-08T05:42:54.074Z,99528.66
2022-12-08T05:45:54.888Z,99525.52
2022-12-08T05:48:21.358Z,99522.02
2022-12-08T05:50:48.982Z,99523.06
2022-12-08T05:54:02.976Z,99524.09
2022-12-08T05:56:31.870Z,99525.09
2022-12-08T05:59:09.146Z,99525.77
2022-12-08T06:02:26.075Z,99526.62
2022-12-08T06:05:01.212Z,99528.94
2022-12-08T06:07:28.521Z,99524.15
2022-12-08T06:09:57.845Z,99522.71
2022-12-08T06:12:24.690Z,99520.70
2022-12-08T06:14:52.716Z,99528.00
2022-12-08T06:17:19.411Z,99524.80
2022-12-08T06:19:46.065Z,99524.85
2022-12-08T06:22:12.880Z,99531.82
2022-12-08T06:24:42.427Z,99525.27
2022-12-08T06:27:09.641Z,99526.45
2022-12-08T06:29:38.903Z,99523.60
2022-12-08T06:32:06.514Z,99523.65
2022-12-08T06:34:36.483Z,99524.14
2022-12-08T06:37:03.669Z,99521.32
2022-12-08T06:39:30.743Z,99521.84
2022-12-08T07:00:26.547Z,99527.66
2022-12-08T07:02:56.059Z,99534.35
2022-12-08T07:05:24.445Z,99536.93
2022-12-08T07:07:52.403Z,99539.45
2022-12-08T07:10:20.572Z,99538.80
2022-12-08T07:12:50.804Z,99540.99
2022-12-08T07:15:19.543Z,99539.54
2022-12-08T07:17:48.340Z,99538.76
2022-12-08T07:20:16.870Z,99540.30
2022-12-08T07:22:52.836Z,99538.20
2022-12-08T07:25:21.685Z,99540.98
2022-12-08T07:27:51.624Z,99542.77
2022-12-08T07:30:22.021Z,99543.00
2022-12-08T07:32:49.898Z,99541.33
2022-12-08T07:35:18.462Z,99540.55
2022-12-08T07:37:48.669Z,99541.55
2022-12-08T07:40:17.009Z,99537.14
2022-12-08T07:42:45.040Z,99535.44
2022-12-08T07:45:12.967Z,99533.13
2022-12-08T07:47:40.943Z,99537.05
2022-12-08T07:50:09.270Z,99534.29
2022-12-08T07:52:38.230Z,99535.17
2022-12-08T07:55:06.718Z,99532.45
2022-12-08T07:57:35.126Z,99536.98
2022-12-08T08:00:06.257Z,99536.45
2022-12-08T08:02:43.220Z,99534.59
2022-12-08T08:05:20.828Z,99535.55
2022-12-08T08:08:53.391Z,99538.31
2022-12-08T08:11:51.993Z,99537.39
2022-12-08T08:15:47.700Z,99539.28
2022-12-08T08:39:36.508Z,99534.43
2022-12-08T08:43:08.855Z,99535.80
2022-12-08T08:45:38.109Z,99533.25
2022-12-08T08:48:08.102Z,99525.23
2022-12-08T08:50:51.198Z,99524.29
2022-12-08T08:53:38.960Z,99520.48
2022-12-08T08:59:34.995Z,99522.22
2022-12-08T09:02:02.063Z,99523.59
2022-12-08T09:04:29.351Z,99525.80
2022-12-08T09:06:59.002Z,99526.11
2022-12-08T09:09:28.601Z,99526.13
2022-12-08T09:11:57.603Z,99526.29
2022-12-08T09:14:27.611Z,99525.57
2022-12-08T09:17:03.914Z,99521.76
2022-12-08T09:19:31.393Z,99531.11
2022-12-08T09:21:59.819Z,99524.67
2022-12-08T09:24:28.952Z,99520.70
2022-12-08T09:26:58.330Z,99518.23
2022-12-08T09:29:34.005Z,99517.61
2022-12-08T09:32:06.208Z,99511.38
2022-12-08T09:34:36.454Z,99511.44
2022-12-08T09:37:04.871Z,99508.89
2022-12-08T09:39:32.655Z,99509.45
2022-12-08T09:42:04.713Z,99509.68
2022-12-08T09:44:50.004Z,99508.51
2022-12-08T09:47:23.242Z,99503.44
2022-12-08T09:49:56.749Z,99497.59
2022-12-08T09:52:40.146Z,99495.22
2022-12-08T09:55:40.315Z,99490.15
2022-12-08T09:58:30.604Z,99495.88
2022-12-08T10:00:58.619Z,99491.65
2022-12-08T10:46:50.491Z,99444.86
2022-12-08T10:52:31.497Z,99442.31
2022-12-08T10:58:47.124Z,99449.80
2022-12-08T11:01:26.053Z,99454.39
2022-12-08T11:04:06.731Z,99453.17
2022-12-08T11:06:44.421Z,99448.67
2022-12-08T11:09:19.470Z,99452.00
2022-12-08T11:12:06.612Z,99446.09
2022-12-08T11:14:42.986Z,99447.88
2022-12-08T11:17:22.019Z,99448.98
2022-12-08T11:20:09.342Z,99445.66
2022-12-08T11:22:40.434Z,99444.58
2022-12-08T11:25:06.993Z,99441.59
2022-12-08T11:27:35.990Z,99441.89
2022-12-08T11:30:12.649Z,99438.80
2022-12-08T11:32:45.562Z,99435.18
2022-12-08T11:35:19.345Z,99431.35
2022-12-08T11:37:45.937Z,99434.55
2022-12-08T11:40:28.384Z,99431.23
2022-12-08T11:43:05.809Z,99433.86
2022-12-08T11:45:33.989Z,99436.68
2022-12-08T11:48:11.914Z,99438.01
2022-12-08T11:51:01.844Z,99439.83
2022-12-08T11:53:56.714Z,99433.78
2022-12-08T11:56:47.633Z,99432.56
2022-12-08T11:59:39.139Z,99424.09
2022-12-08T12:02:34.530Z,99428.34
2022-12-08T12:06:12.959Z,99424.29
2022-12-08T12:09:16.256Z,99420.64
2022-12-08T12:12:18.397Z,99417.09
2022-12-08T12:15:12.644Z,99414.58
2022-12-08T12:18:26.223Z,99415.80
2022-12-08T12:21:23.820Z,99412.05
2022-12-08T12:24:14.592Z,99413.02
2022-12-08T12:27:13.995Z,99412.40
2022-12-08T12:33:23.901Z,99410.89
2022-12-08T12:35:55.962Z,99411.29
2022-12-08T12:38:58.307Z,99417.06
2022-12-08T13:29:24.619Z,99375.84
2022-12-08T13:31:52.479Z,99373.63
2022-12-08T13:34:49.008Z,99379.55
2022-12-08T13:37:50.739Z,99379.55
2022-12-08T13:40:24.509Z,99375.44
2022-12-08T13:42:58.313Z,99375.08
2022-12-08T13:45:52.916Z,99378.70
2022-12-08T13:56:59.317Z,99376.55
2022-12-08T13:58:47.333Z,99380.10
2022-12-08T14:27:08.328Z,99389.61
2022-12-08T14:29:51.337Z,99387.27
2022-12-08T14:32:34.945Z,99389.91
2022-12-08T14:35:09.595Z,99397.02
2022-12-08T14:45:43.126Z,99400.83
2022-12-08T14:48:35.121Z,99402.36
2022-12-08T14:51:30.560Z,99393.98
2022-12-08T14:54:14.625Z,99395.33
2022-12-08T14:57:16.565Z,99397.27
2022-12-08T14:59:51.397Z,99399.39
2022-12-08T15:23:51.754Z,99398.25
2022-12-08T15:26:29.766Z,99398.63
2022-12-08T15:29:05.219Z,99397.95
2022-12-08T15:31:46.041Z,99394.33
2022-12-08T15:34:21.851Z,99395.95
2022-12-08T15:36:54.196Z,99395.41
2022-12-08T15:42:15.964Z,99400.40
2022-12-08T15:44:45.648Z,99399.25
2022-12-08T15:50:37.102Z,99397.81
2022-12-08T15:53:36.891Z,99393.52
2022-12-08T15:58:57.685Z,99389.38
2022-12-08T16:01:29.853Z,99388.05
2022-12-08T16:10:52.508Z,99384.73
2022-12-08T16:14:33.587Z,99380.05
2022-12-08T16:16:52.370Z,99389.42
2022-12-08T16:19:28.730Z,99382.41
2022-12-08T16:22:44.870Z,99383.84
2022-12-08T16:25:04.942Z,99384.48
2022-12-08T16:30:31.250Z,99384.30
2022-12-08T16:32:59.363Z,99379.13
2022-12-08T16:35:27.653Z,99388.00
2022-12-08T16:37:59.581Z,99388.87
2022-12-08T16:44:53.302Z,99387.25
2022-12-08T16:47:24.037Z,99386.71
2022-12-08T16:50:01.074Z,99388.20
2022-12-08T16:52:32.187Z,99390.96
2022-12-08T16:55:00.334Z,99387.65
2022-12-08T16:57:28.315Z,99390.11
2022-12-08T16:59:58.326Z,99390.41
2022-12-08T17:02:29.179Z,99384.11
2022-12-08T17:04:57.138Z,99388.50
2022-12-08T17:07:28.108Z,99389.17
2022-12-08T17:09:56.107Z,99388.48
2022-12-08T17:12:23.982Z,99383.25
2022-12-08T17:15:06.003Z,99381.16
2022-12-08T17:17:35.565Z,99381.97
2022-12-08T17:20:05.772Z,99384.34
2022-12-08T17:22:38.049Z,99383.95
2022-12-08T17:25:06.941Z,99387.16
2022-12-08T17:27:36.236Z,99390.64
2022-12-08T17:30:07.927Z,99394.20
2022-12-08T17:32:38.008Z,99390.73
2022-12-08T17:35:07.053Z,99395.52
2022-12-08T17:37:35.419Z,99392.71
2022-12-08T17:40:04.070Z,99389.91
2022-12-08T17:42:32.657Z,99394.10
2022-12-08T17:45:00.795Z,99393.30
2022-12-08T17:47:29.064Z,99392.30
2022-12-08T17:49:58.968Z,99388.88
2022-12-08T17:52:27.229Z,99392.90
2022-12-08T17:55:00.090Z,99389.60
2022-12-08T17:57:41.155Z,99390.04
2022-12-08T18:00:13.440Z,99380.23
2022-12-08T18:02:41.767Z,99383.02
2022-12-08T18:05:41.577Z,99388.38
2022-12-08T18:08:15.719Z,99384.71
2022-12-08T18:10:47.699Z,99377.33
2022-12-08T18:13:19.791Z,99374.46
2022-12-08T18:20:58.441Z,99384.42
2022-12-08T18:24:10.143Z,99382.71
2022-12-08T18:26:39.283Z,99378.95
2022-12-08T18:29:18.654Z,99383.52
2022-12-08T18:48:45.595Z,99374.00
2022-12-08T18:51:15.854Z,99375.39
2022-12-08T18:53:45.516Z,99377.48
2022-12-08T18:56:39.232Z,99378.59
2022-12-08T18:59:31.653Z,99378.00
2022-12-08T19:02:21.966Z,99376.73
2022-12-08T19:56:33.018Z,99381.80
2022-12-08T19:58:59.856Z,99380.91
2022-12-08T20:01:26.276Z,99378.77
2022-12-08T20:03:55.696Z,99375.54
2022-12-08T20:06:22.556Z,99378.41
2022-12-08T20:08:50.720Z,99380.08
2022-12-08T20:11:17.647Z,99380.23
2022-12-08T20:13:45.060Z,99378.02
2022-12-08T20:16:12.042Z,99379.52
2022-12-08T20:18:39.284Z,99381.81
2022-12-08T20:21:06.096Z,99384.39
2022-12-08T20:23:32.819Z,99384.13
2022-12-08T20:26:04.156Z,99381.73
2022-12-08T20:28:30.767Z,99383.63
2022-12-08T20:30:57.322Z,99389.56
2022-12-08T20:33:24.397Z,99390.28
2022-12-08T20:36:02.371Z,99391.78
2022-12-08T20:38:29.725Z,99391.17
2022-12-08T20:40:57.459Z,99392.20
2022-12-08T20:43:24.596Z,99394.08
2022-12-08T20:45:51.057Z,99399.23
2022-12-08T20:48:17.459Z,99400.55
2022-12-08T20:50:43.954Z,99402.75
2022-12-08T20:53:10.487Z,99399.84
2022-12-08T20:55:39.909Z,99404.44
2022-12-08T20:58:06.409Z,99407.11
2022-12-08T21:00:33.303Z,99405.33
2022-12-08T21:03:00.309Z,99402.41
2022-12-08T21:05:26.964Z,99402.02
2022-12-08T21:07:53.714Z,99403.73
2022-12-08T21:10:20.372Z,99403.72
2022-12-08T21:12:47.003Z,99403.39
2022-12-08T21:15:13.646Z,99402.53
2022-12-08T21:17:40.093Z,99399.56
2022-12-08T21:20:07.915Z,99398.41
2022-12-08T21:22:34.471Z,99402.21
2022-12-08T21:25:01.061Z,99406.23
2022-12-08T21:27:27.544Z,99405.59
2022-12-08T21:29:54.122Z,99407.95
2022-12-08T21:32:23.431Z,99397.78
2022-12-08T21:34:53.969Z,99401.26
2022-12-08T21:37:21.600Z,99399.34
2022-12-08T21:39:48.317Z,99402.16
2022-12-08T21:42:34.514Z,99403.88
2022-12-08T21:45:01.368Z,99408.45
2022-12-08T21:47:28.070Z,99403.98
2022-12-08T21:49:54.788Z,99402.30
2022-12-08T21:52:21.459Z,99396.53
2022-12-08T21:54:47.962Z,99389.38
2022-12-08T21:57:14.662Z,99385.03
2022-12-08T21:59:41.210Z,99387.83
2022-12-08T22:02:11.651Z,99386.50
2022-12-08T22:04:38.397Z,99384.79
2022-12-08T22:07:06.649Z,99384.08
2022-12-08T22:09:33.433Z,99380.80
2022-12-08T22:12:00.301Z,99385.08
2022-12-08T22:14:27.409Z,99384.67
2022-12-08T22:16:56.781Z,99389.38
2022-12-08T22:19:24.136Z,99395.10
2022-12-08T22:21:50.999Z,99394.16
2022-12-08T22:24:17.550Z,99393.88
2022-12-08T22:26:43.960Z,99391.09
2022-12-08T22:29:10.723Z,99395.23
2022-12-08T22:31:37.322Z,99393.52
2022-12-08T22:34:03.875Z,99391.97
2022-12-08T22:36:30.446Z,99390.81
2022-12-08T22:38:57.109Z,99389.28
2022-12-08T22:41:23.797Z,99389.11
2022-12-08T22:43:50.811Z,99390.77
2022-12-08T22:46:20.816Z,99391.95
2022-12-08T22:48:47.945Z,99392.02
2022-12-08T22:51:14.439Z,99393.09
2022-12-08T22:53:41.208Z,99397.48
2022-12-08T22:56:09.581Z,99399.87
2022-12-08T22:58:36.945Z,99400.98
2022-12-08T23:01:04.256Z,99398.54
2022-12-08T23:03:31.410Z,99400.92
2022-12-08T23:05:58.086Z,99400.37
2022-12-08T23:08:24.584Z,99398.39
2022-12-08T23:10:52.933Z,99390.00
2022-12-08T23:13:20.443Z,99388.89
2022-12-08T23:15:47.265Z,99391.66
2022-12-08T23:18:16.254Z,99387.81
2022-12-08T23:20:42.783Z,99394.98
2022-12-08T23:23:09.294Z,99391.77
2022-12-08T23:25:42.136Z,99393.48
2022-12-08T23:28:09.282Z,99394.55
2022-12-08T23:30:38.853Z,99397.08
2022-12-08T23:33:05.575Z,99399.23
2022-12-08T23:35:32.158Z,99401.33
2022-12-08T23:37:58.561Z,99404.15
2022-12-08T23:40:25.116Z,99400.95
2022-12-08T23:42:51.530Z,99404.30
2022-12-08T23:45:17.860Z,99404.98
2022-12-08T23:47:44.259Z,99405.16
2022-12-08T23:50:11.523Z,99405.61
2022-12-08T23:52:39.842Z,99412.64
2022-12-08T23:55:07.471Z,99411.10
2022-12-08T23:57:35.278Z,99413.30
